Terminal Aerodrome Forecast
Issued by NWS Greer, SC

Home | Current Version | Previous Version | Text Only | Print | Product List | Glossary On
Versions: 1 2 3 4 5 6 7 8 9 10 11 12 13 14 15 16 17 18 19 20 21 22 23 24
000
FTUS42 KGSP 171729
TAFGSP
TAF
KGSP 171729Z 1718/1818 16003KT P6SM FEW050 FEW150
     FM172100 15004KT P6SM SCT050 SCT150
     FM180200 07004KT P6SM SCT090
     FM180600 05005KT P6SM FEW020 BKN040
     FM181400 11004KT P6SM FEW050 SCT100=

USA.gov is the U.S. government's official web portal to all federal, state and local government web resources and services.